sensor_id;sensor_type;location;lat;lon;timestamp;P1;durP1;ratioP1;P2;durP2;ratioP2
36315;SDS011;22343;50.820;2.666;2024-03-23T00:54:15;8.33;;;3.20;;
36315;SDS011;22343;50.820;2.666;2024-03-23T00:57:00;9.50;;;3.37;;
36315;SDS011;22343;50.820;2.666;2024-03-23T00:59:44;7.60;;;3.10;;
36315;SDS011;22343;50.820;2.666;2024-03-23T01:02:28;9.23;;;3.47;;
36315;SDS011;22343;50.820;2.666;2024-03-23T01:05:13;11.03;;;3.50;;
36315;SDS011;22343;50.820;2.666;2024-03-23T01:07:57;9.20;;;3.33;;
36315;SDS011;22343;50.820;2.666;2024-03-23T01:10:41;8.53;;;3.03;;
36315;SDS011;22343;50.820;2.666;2024-03-23T01:13:26;9.37;;;3.50;;
36315;SDS011;22343;50.820;2.666;2024-03-23T01:16:11;7.00;;;3.47;;
36315;SDS011;22343;50.820;2.666;2024-03-23T01:18:55;8.17;;;3.07;;
36315;SDS011;22343;50.820;2.666;2024-03-23T01:21:39;8.03;;;3.13;;
36315;SDS011;22343;50.820;2.666;2024-03-23T01:24:24;8.20;;;3.23;;
36315;SDS011;22343;50.820;2.666;2024-03-23T01:27:08;8.10;;;3.20;;
36315;SDS011;22343;50.820;2.666;2024-03-23T01:29:52;8.50;;;3.60;;
36315;SDS011;22343;50.820;2.666;2024-03-23T01:32:37;6.70;;;3.20;;
36315;SDS011;22343;50.820;2.666;2024-03-23T01:35:21;7.27;;;3.10;;
36315;SDS011;22343;50.820;2.666;2024-03-23T01:38:05;8.33;;;3.10;;
36315;SDS011;22343;50.820;2.666;2024-03-23T01:40:49;7.80;;;3.40;;
36315;SDS011;22343;50.820;2.666;2024-03-23T01:43:41;8.77;;;3.33;;
36315;SDS011;22343;50.820;2.666;2024-03-23T01:46:25;7.53;;;2.77;;
36315;SDS011;22343;50.820;2.666;2024-03-23T01:49:10;6.30;;;2.97;;
36315;SDS011;22343;50.820;2.666;2024-03-23T01:51:54;9.40;;;2.90;;
36315;SDS011;22343;50.820;2.666;2024-03-23T01:54:39;7.57;;;3.10;;
36315;SDS011;22343;50.820;2.666;2024-03-23T01:57:24;9.93;;;3.80;;
36315;SDS011;22343;50.820;2.666;2024-03-23T02:00:10;12.17;;;3.43;;
36315;SDS011;22343;50.820;2.666;2024-03-23T02:02:56;7.97;;;3.10;;
36315;SDS011;22343;50.820;2.666;2024-03-23T02:05:40;7.70;;;3.37;;
36315;SDS011;22343;50.820;2.666;2024-03-23T02:08:24;10.83;;;3.27;;
36315;SDS011;22343;50.820;2.666;2024-03-23T02:11:09;12.53;;;3.50;;
36315;SDS011;22343;50.820;2.666;2024-03-23T02:13:53;7.33;;;2.93;;
36315;SDS011;22343;50.820;2.666;2024-03-23T02:16:37;7.43;;;3.30;;
36315;SDS011;22343;50.820;2.666;2024-03-23T02:19:21;7.87;;;3.83;;
36315;SDS011;22343;50.820;2.666;2024-03-23T02:22:06;10.03;;;3.63;;
36315;SDS011;22343;50.820;2.666;2024-03-23T02:24:50;6.77;;;3.53;;
36315;SDS011;22343;50.820;2.666;2024-03-23T02:27:34;8.57;;;3.80;;
36315;SDS011;22343;50.820;2.666;2024-03-23T02:30:20;8.60;;;3.50;;
36315;SDS011;22343;50.820;2.666;2024-03-23T02:33:04;13.00;;;3.50;;
36315;SDS011;22343;50.820;2.666;2024-03-23T02:35:48;10.77;;;3.50;;
36315;SDS011;22343;50.820;2.666;2024-03-23T02:38:33;11.50;;;3.70;;
36315;SDS011;22343;50.820;2.666;2024-03-23T02:41:17;11.37;;;4.03;;
36315;SDS011;22343;50.820;2.666;2024-03-23T02:44:06;9.43;;;3.40;;
36315;SDS011;22343;50.820;2.666;2024-03-23T02:46:52;12.67;;;4.00;;
36315;SDS011;22343;50.820;2.666;2024-03-23T02:49:36;10.23;;;3.43;;
36315;SDS011;22343;50.820;2.666;2024-03-23T02:52:21;13.43;;;3.63;;
36315;SDS011;22343;50.820;2.666;2024-03-23T02:55:05;10.67;;;3.73;;
36315;SDS011;22343;50.820;2.666;2024-03-23T02:57:50;12.03;;;3.30;;
36315;SDS011;22343;50.820;2.666;2024-03-23T03:00:34;10.57;;;3.30;;
36315;SDS011;22343;50.820;2.666;2024-03-23T03:03:19;10.50;;;3.27;;
36315;SDS011;22343;50.820;2.666;2024-03-23T03:06:03;14.30;;;3.80;;
36315;SDS011;22343;50.820;2.666;2024-03-23T03:08:48;10.23;;;3.10;;
36315;SDS011;22343;50.820;2.666;2024-03-23T03:11:32;8.70;;;3.13;;
36315;SDS011;22343;50.820;2.666;2024-03-23T03:14:16;12.60;;;3.30;;
36315;SDS011;22343;50.820;2.666;2024-03-23T03:17:01;8.03;;;3.10;;
36315;SDS011;22343;50.820;2.666;2024-03-23T03:19:45;10.00;;;3.33;;
36315;SDS011;22343;50.820;2.666;2024-03-23T03:22:29;8.13;;;3.60;;
36315;SDS011;22343;50.820;2.666;2024-03-23T03:25:14;8.13;;;2.93;;
36315;SDS011;22343;50.820;2.666;2024-03-23T03:27:58;12.97;;;3.57;;
36315;SDS011;22343;50.820;2.666;2024-03-23T03:30:43;8.93;;;3.10;;
36315;SDS011;22343;50.820;2.666;2024-03-23T03:33:27;7.60;;;3.50;;
36315;SDS011;22343;50.820;2.666;2024-03-23T03:36:12;12.30;;;3.53;;
36315;SDS011;22343;50.820;2.666;2024-03-23T03:38:56;8.57;;;2.93;;
36315;SDS011;22343;50.820;2.666;2024-03-23T03:41:41;11.13;;;3.17;;
36315;SDS011;22343;50.820;2.666;2024-03-23T03:44:25;12.83;;;3.17;;
36315;SDS011;22343;50.820;2.666;2024-03-23T03:47:09;10.83;;;3.10;;
36315;SDS011;22343;50.820;2.666;2024-03-23T03:49:53;10.50;;;3.03;;
36315;SDS011;22343;50.820;2.666;2024-03-23T03:52:38;11.17;;;3.40;;
36315;SDS011;22343;50.820;2.666;2024-03-23T03:55:22;13.17;;;3.30;;
36315;SDS011;22343;50.820;2.666;2024-03-23T03:58:07;11.00;;;3.30;;
36315;SDS011;22343;50.820;2.666;2024-03-23T04:00:51;11.07;;;3.30;;
36315;SDS011;22343;50.820;2.666;2024-03-23T04:03:35;11.53;;;3.30;;
36315;SDS011;22343;50.820;2.666;2024-03-23T04:06:20;14.97;;;3.33;;
36315;SDS011;22343;50.820;2.666;2024-03-23T04:09:04;7.33;;;3.03;;
36315;SDS011;22343;50.820;2.666;2024-03-23T04:11:50;9.10;;;3.60;;
36315;SDS011;22343;50.820;2.666;2024-03-23T04:14:34;7.37;;;3.00;;
36315;SDS011;22343;50.820;2.666;2024-03-23T04:17:19;8.80;;;3.17;;
36315;SDS011;22343;50.820;2.666;2024-03-23T04:20:03;10.60;;;3.13;;
36315;SDS011;22343;50.820;2.666;2024-03-23T04:22:52;7.17;;;2.90;;
36315;SDS011;22343;50.820;2.666;2024-03-23T04:25:37;12.63;;;3.30;;
36315;SDS011;22343;50.820;2.666;2024-03-23T04:28:22;8.57;;;3.17;;
36315;SDS011;22343;50.820;2.666;2024-03-23T04:31:06;8.53;;;3.17;;
36315;SDS011;22343;50.820;2.666;2024-03-23T04:33:51;11.83;;;3.27;;
36315;SDS011;22343;50.820;2.666;2024-03-23T04:36:35;9.50;;;2.90;;
36315;SDS011;22343;50.820;2.666;2024-03-23T04:39:19;5.30;;;3.00;;
36315;SDS011;22343;50.820;2.666;2024-03-23T04:42:04;9.17;;;3.17;;
36315;SDS011;22343;50.820;2.666;2024-03-23T04:44:49;9.50;;;3.20;;
36315;SDS011;22343;50.820;2.666;2024-03-23T04:47:34;11.17;;;2.87;;
36315;SDS011;22343;50.820;2.666;2024-03-23T04:50:19;9.27;;;3.10;;
36315;SDS011;22343;50.820;2.666;2024-03-23T04:53:04;10.20;;;3.23;;
36315;SDS011;22343;50.820;2.666;2024-03-23T04:55:48;9.23;;;3.00;;
36315;SDS011;22343;50.820;2.666;2024-03-23T04:58:32;8.70;;;3.03;;
36315;SDS011;22343;50.820;2.666;2024-03-23T05:01:17;10.20;;;3.23;;
36315;SDS011;22343;50.820;2.666;2024-03-23T05:04:01;8.07;;;3.00;;
36315;SDS011;22343;50.820;2.666;2024-03-23T05:06:46;8.93;;;3.00;;
36315;SDS011;22343;50.820;2.666;2024-03-23T05:09:31;8.60;;;2.80;;
36315;SDS011;22343;50.820;2.666;2024-03-23T05:12:16;6.90;;;2.90;;
36315;SDS011;22343;50.820;2.666;2024-03-23T05:15:01;8.33;;;2.50;;
36315;SDS011;22343;50.820;2.666;2024-03-23T05:17:45;9.83;;;3.10;;
36315;SDS011;22343;50.820;2.666;2024-03-23T05:20:29;8.10;;;2.87;;
36315;SDS011;22343;50.820;2.666;2024-03-23T05:23:14;10.57;;;2.90;;
36315;SDS011;22343;50.820;2.666;2024-03-23T05:25:59;10.67;;;3.10;;
36315;SDS011;22343;50.820;2.666;2024-03-23T05:28:43;6.40;;;2.63;;
36315;SDS011;22343;50.820;2.666;2024-03-23T05:31:28;10.20;;;3.10;;
36315;SDS011;22343;50.820;2.666;2024-03-23T05:34:14;8.13;;;2.87;;
36315;SDS011;22343;50.820;2.666;2024-03-23T05:36:58;9.23;;;3.03;;
36315;SDS011;22343;50.820;2.666;2024-03-23T05:39:46;6.93;;;2.87;;
36315;SDS011;22343;50.820;2.666;2024-03-23T05:42:32;8.53;;;3.17;;
36315;SDS011;22343;50.820;2.666;2024-03-23T05:45:16;9.00;;;3.27;;
36315;SDS011;22343;50.820;2.666;2024-03-23T05:48:02;7.23;;;2.43;;
36315;SDS011;22343;50.820;2.666;2024-03-23T05:50:47;10.93;;;2.80;;
36315;SDS011;22343;50.820;2.666;2024-03-23T05:53:33;5.60;;;2.70;;
36315;SDS011;22343;50.820;2.666;2024-03-23T05:56:19;7.00;;;2.73;;
36315;SDS011;22343;50.820;2.666;2024-03-23T05:59:04;7.60;;;2.80;;
36315;SDS011;22343;50.820;2.666;2024-03-23T06:01:48;8.97;;;2.67;;
36315;SDS011;22343;50.820;2.666;2024-03-23T06:04:33;8.23;;;2.90;;
36315;SDS011;22343;50.820;2.666;2024-03-23T06:07:17;6.10;;;2.60;;
36315;SDS011;22343;50.820;2.666;2024-03-23T06:10:01;11.17;;;2.70;;
36315;SDS011;22343;50.820;2.666;2024-03-23T06:12:46;7.73;;;2.70;;
36315;SDS011;22343;50.820;2.666;2024-03-23T06:15:30;8.37;;;2.97;;
36315;SDS011;22343;50.820;2.666;2024-03-23T06:18:15;9.93;;;2.87;;
36315;SDS011;22343;50.820;2.666;2024-03-23T06:20:59;8.60;;;3.00;;
36315;SDS011;22343;50.820;2.666;2024-03-23T06:23:44;7.07;;;2.70;;
36315;SDS011;22343;50.820;2.666;2024-03-23T06:26:35;10.10;;;2.80;;
36315;SDS011;22343;50.820;2.666;2024-03-23T06:29:19;8.50;;;2.70;;
36315;SDS011;22343;50.820;2.666;2024-03-23T06:32:04;7.20;;;2.80;;
36315;SDS011;22343;50.820;2.666;2024-03-23T06:34:48;8.23;;;2.57;;
36315;SDS011;22343;50.820;2.666;2024-03-23T06:37:32;6.00;;;2.90;;
36315;SDS011;22343;50.820;2.666;2024-03-23T06:40:16;8.47;;;2.70;;
36315;SDS011;22343;50.820;2.666;2024-03-23T06:43:01;6.77;;;2.50;;
36315;SDS011;22343;50.820;2.666;2024-03-23T06:45:52;6.67;;;2.57;;
36315;SDS011;22343;50.820;2.666;2024-03-23T06:48:39;7.43;;;2.80;;
36315;SDS011;22343;50.820;2.666;2024-03-23T06:51:24;10.23;;;2.53;;
36315;SDS011;22343;50.820;2.666;2024-03-23T06:54:08;6.10;;;2.43;;
36315;SDS011;22343;50.820;2.666;2024-03-23T06:56:52;7.23;;;2.30;;
36315;SDS011;22343;50.820;2.666;2024-03-23T06:59:37;9.83;;;2.70;;
36315;SDS011;22343;50.820;2.666;2024-03-23T07:02:22;8.43;;;2.70;;
36315;SDS011;22343;50.820;2.666;2024-03-23T07:05:07;3.93;;;2.47;;
36315;SDS011;22343;50.820;2.666;2024-03-23T07:07:51;7.00;;;2.57;;
36315;SDS011;22343;50.820;2.666;2024-03-23T07:10:38;7.07;;;2.77;;
36315;SDS011;22343;50.820;2.666;2024-03-23T07:13:23;9.30;;;2.90;;
36315;SDS011;22343;50.820;2.666;2024-03-23T07:16:08;9.00;;;2.53;;
36315;SDS011;22343;50.820;2.666;2024-03-23T07:18:52;7.37;;;2.70;;
36315;SDS011;22343;50.820;2.666;2024-03-23T07:21:36;5.50;;;2.87;;
36315;SDS011;22343;50.820;2.666;2024-03-23T07:24:21;6.23;;;2.53;;
36315;SDS011;22343;50.820;2.666;2024-03-23T07:27:05;6.73;;;2.60;;
36315;SDS011;22343;50.820;2.666;2024-03-23T07:29:52;8.27;;;3.03;;
36315;SDS011;22343;50.820;2.666;2024-03-23T07:32:37;6.03;;;2.97;;
36315;SDS011;22343;50.820;2.666;2024-03-23T07:35:22;8.00;;;2.60;;
36315;SDS011;22343;50.820;2.666;2024-03-23T07:38:06;8.37;;;2.70;;
36315;SDS011;22343;50.820;2.666;2024-03-23T07:40:51;7.33;;;2.60;;
36315;SDS011;22343;50.820;2.666;2024-03-23T07:43:40;6.23;;;2.43;;
36315;SDS011;22343;50.820;2.666;2024-03-23T07:46:24;7.03;;;2.33;;
36315;SDS011;22343;50.820;2.666;2024-03-23T07:49:09;6.20;;;2.57;;
36315;SDS011;22343;50.820;2.666;2024-03-23T07:51:53;7.37;;;2.57;;
36315;SDS011;22343;50.820;2.666;2024-03-23T07:54:38;7.97;;;2.50;;
36315;SDS011;22343;50.820;2.666;2024-03-23T07:57:22;7.23;;;2.43;;
36315;SDS011;22343;50.820;2.666;2024-03-23T08:00:06;7.27;;;2.37;;
36315;SDS011;22343;50.820;2.666;2024-03-23T08:02:52;9.83;;;2.40;;
36315;SDS011;22343;50.820;2.666;2024-03-23T08:05:36;6.10;;;2.67;;
36315;SDS011;22343;50.820;2.666;2024-03-23T08:08:21;9.87;;;2.73;;
36315;SDS011;22343;50.820;2.666;2024-03-23T08:11:05;5.23;;;2.40;;
36315;SDS011;22343;50.820;2.666;2024-03-23T08:13:50;5.83;;;2.33;;
36315;SDS011;22343;50.820;2.666;2024-03-23T08:16:34;7.73;;;2.67;;
36315;SDS011;22343;50.820;2.666;2024-03-23T08:19:19;5.17;;;2.30;;
36315;SDS011;22343;50.820;2.666;2024-03-23T08:22:03;8.10;;;2.60;;
36315;SDS011;22343;50.820;2.666;2024-03-23T08:24:47;6.67;;;2.63;;
36315;SDS011;22343;50.820;2.666;2024-03-23T08:27:32;6.80;;;2.77;;
36315;SDS011;22343;50.820;2.666;2024-03-23T08:30:17;5.47;;;2.50;;
36315;SDS011;22343;50.820;2.666;2024-03-23T08:33:01;7.80;;;2.53;;
36315;SDS011;22343;50.820;2.666;2024-03-23T08:36:07;6.80;;;2.40;;
36315;SDS011;22343;50.820;2.666;2024-03-23T08:38:53;7.10;;;2.57;;
36315;SDS011;22343;50.820;2.666;2024-03-23T08:41:38;7.40;;;2.53;;
36315;SDS011;22343;50.820;2.666;2024-03-23T08:44:24;7.80;;;2.60;;
36315;SDS011;22343;50.820;2.666;2024-03-23T08:47:08;6.37;;;2.50;;
36315;SDS011;22343;50.820;2.666;2024-03-23T08:49:53;5.63;;;2.30;;
36315;SDS011;22343;50.820;2.666;2024-03-23T08:52:39;5.53;;;2.40;;
36315;SDS011;22343;50.820;2.666;2024-03-23T08:55:23;5.77;;;2.10;;
36315;SDS011;22343;50.820;2.666;2024-03-23T08:58:07;9.03;;;2.40;;
36315;SDS011;22343;50.820;2.666;2024-03-23T09:00:53;7.60;;;2.30;;
36315;SDS011;22343;50.820;2.666;2024-03-23T09:03:40;4.47;;;2.13;;
36315;SDS011;22343;50.820;2.666;2024-03-23T09:06:26;6.60;;;2.30;;
36315;SDS011;22343;50.820;2.666;2024-03-23T09:09:11;8.57;;;2.63;;
36315;SDS011;22343;50.820;2.666;2024-03-23T09:11:57;8.57;;;2.67;;
36315;SDS011;22343;50.820;2.666;2024-03-23T09:14:43;6.33;;;2.63;;
36315;SDS011;22343;50.820;2.666;2024-03-23T09:17:27;9.37;;;3.03;;
36315;SDS011;22343;50.820;2.666;2024-03-23T09:20:11;6.30;;;2.30;;
36315;SDS011;22343;50.820;2.666;2024-03-23T09:22:57;6.27;;;2.50;;
36315;SDS011;22343;50.820;2.666;2024-03-23T09:25:42;7.07;;;2.30;;
36315;SDS011;22343;50.820;2.666;2024-03-23T09:28:28;8.57;;;2.50;;
36315;SDS011;22343;50.820;2.666;2024-03-23T09:31:13;4.50;;;2.33;;
36315;SDS011;22343;50.820;2.666;2024-03-23T09:34:00;6.30;;;2.23;;
36315;SDS011;22343;50.820;2.666;2024-03-23T09:36:46;9.80;;;2.53;;
36315;SDS011;22343;50.820;2.666;2024-03-23T09:39:33;10.33;;;2.60;;
36315;SDS011;22343;50.820;2.666;2024-03-23T09:42:19;5.17;;;2.20;;
36315;SDS011;22343;50.820;2.666;2024-03-23T09:45:05;7.73;;;2.63;;
36315;SDS011;22343;50.820;2.666;2024-03-23T09:47:52;6.37;;;2.50;;
36315;SDS011;22343;50.820;2.666;2024-03-23T09:50:39;4.77;;;2.40;;
36315;SDS011;22343;50.820;2.666;2024-03-23T09:53:24;7.03;;;2.50;;
36315;SDS011;22343;50.820;2.666;2024-03-23T09:56:10;5.17;;;2.10;;
36315;SDS011;22343;50.820;2.666;2024-03-23T09:59:03;7.93;;;2.53;;
36315;SDS011;22343;50.820;2.666;2024-03-23T10:01:49;6.30;;;2.40;;
36315;SDS011;22343;50.820;2.666;2024-03-23T10:04:43;5.73;;;2.60;;
36315;SDS011;22343;50.820;2.666;2024-03-23T10:07:29;8.77;;;2.57;;
36315;SDS011;22343;50.820;2.666;2024-03-23T10:10:15;5.63;;;2.27;;
36315;SDS011;22343;50.820;2.666;2024-03-23T10:13:00;6.37;;;2.33;;
36315;SDS011;22343;50.820;2.666;2024-03-23T10:15:46;8.47;;;2.63;;
36315;SDS011;22343;50.820;2.666;2024-03-23T10:18:43;6.60;;;2.20;;
36315;SDS011;22343;50.820;2.666;2024-03-23T10:21:29;6.80;;;2.20;;
36315;SDS011;22343;50.820;2.666;2024-03-23T10:24:13;8.93;;;2.67;;
36315;SDS011;22343;50.820;2.666;2024-03-23T10:26:58;5.60;;;2.50;;
36315;SDS011;22343;50.820;2.666;2024-03-23T10:29:44;8.70;;;2.60;;
36315;SDS011;22343;50.820;2.666;2024-03-23T10:32:29;6.43;;;2.23;;
36315;SDS011;22343;50.820;2.666;2024-03-23T10:35:18;7.20;;;2.40;;
36315;SDS011;22343;50.820;2.666;2024-03-23T10:38:07;5.50;;;2.40;;
36315;SDS011;22343;50.820;2.666;2024-03-23T10:40:53;6.53;;;2.20;;
36315;SDS011;22343;50.820;2.666;2024-03-23T10:43:39;7.33;;;2.53;;
36315;SDS011;22343;50.820;2.666;2024-03-23T10:46:24;4.47;;;2.00;;
36315;SDS011;22343;50.820;2.666;2024-03-23T10:49:09;9.13;;;2.70;;
36315;SDS011;22343;50.820;2.666;2024-03-23T10:51:54;5.23;;;2.23;;
36315;SDS011;22343;50.820;2.666;2024-03-23T10:54:40;8.13;;;2.27;;
36315;SDS011;22343;50.820;2.666;2024-03-23T10:58:00;4.20;;;1.87;;
36315;SDS011;22343;50.820;2.666;2024-03-23T11:00:39;5.40;;;2.40;;
36315;SDS011;22343;50.820;2.666;2024-03-23T11:12:31;5.80;;;2.00;;
36315;SDS011;22343;50.820;2.666;2024-03-23T11:15:17;6.53;;;1.97;;
36315;SDS011;22343;50.820;2.666;2024-03-23T11:18:02;5.03;;;2.20;;
36315;SDS011;22343;50.820;2.666;2024-03-23T11:20:52;6.40;;;2.20;;
36315;SDS011;22343;50.820;2.666;2024-03-23T11:23:36;4.23;;;1.90;;
36315;SDS011;22343;50.820;2.666;2024-03-23T11:26:21;5.37;;;2.10;;
36315;SDS011;22343;50.820;2.666;2024-03-23T11:29:09;8.17;;;2.50;;
36315;SDS011;22343;50.820;2.666;2024-03-23T11:31:54;7.50;;;2.30;;
36315;SDS011;22343;50.820;2.666;2024-03-23T11:34:39;6.40;;;2.50;;
36315;SDS011;22343;50.820;2.666;2024-03-23T11:37:24;7.20;;;1.80;;
36315;SDS011;22343;50.820;2.666;2024-03-23T11:40:21;5.97;;;2.20;;
36315;SDS011;22343;50.820;2.666;2024-03-23T11:43:09;7.20;;;2.50;;
36315;SDS011;22343;50.820;2.666;2024-03-23T11:45:57;5.10;;;2.00;;
36315;SDS011;22343;50.820;2.666;2024-03-23T11:48:49;6.20;;;2.20;;
36315;SDS011;22343;50.820;2.666;2024-03-23T11:51:34;7.63;;;2.73;;
36315;SDS011;22343;50.820;2.666;2024-03-23T11:54:23;7.53;;;2.10;;
36315;SDS011;22343;50.820;2.666;2024-03-23T11:57:08;6.67;;;1.83;;
36315;SDS011;22343;50.820;2.666;2024-03-23T11:59:53;6.80;;;2.70;;
36315;SDS011;22343;50.820;2.666;2024-03-23T12:02:37;8.27;;;2.30;;
36315;SDS011;22343;50.820;2.666;2024-03-23T12:05:22;6.50;;;2.30;;
36315;SDS011;22343;50.820;2.666;2024-03-23T12:08:19;5.47;;;2.00;;
36315;SDS011;22343;50.820;2.666;2024-03-23T12:14:00;4.20;;;2.30;;
36315;SDS011;22343;50.820;2.666;2024-03-23T12:16:45;4.50;;;2.03;;
36315;SDS011;22343;50.820;2.666;2024-03-23T12:19:29;4.23;;;2.00;;
36315;SDS011;22343;50.820;2.666;2024-03-23T12:22:14;5.70;;;2.00;;
36315;SDS011;22343;50.820;2.666;2024-03-23T12:24:58;6.13;;;2.63;;
36315;SDS011;22343;50.820;2.666;2024-03-23T12:27:43;6.83;;;2.40;;
36315;SDS011;22343;50.820;2.666;2024-03-23T12:30:30;6.33;;;2.10;;
36315;SDS011;22343;50.820;2.666;2024-03-23T12:33:15;5.40;;;2.03;;
36315;SDS011;22343;50.820;2.666;2024-03-23T12:36:01;5.93;;;2.30;;
36315;SDS011;22343;50.820;2.666;2024-03-23T12:38:46;5.17;;;2.03;;
36315;SDS011;22343;50.820;2.666;2024-03-23T12:41:31;7.17;;;2.43;;
36315;SDS011;22343;50.820;2.666;2024-03-23T12:44:16;7.43;;;3.10;;
36315;SDS011;22343;50.820;2.666;2024-03-23T12:47:02;7.40;;;3.37;;
36315;SDS011;22343;50.820;2.666;2024-03-23T12:49:48;5.60;;;2.30;;
36315;SDS011;22343;50.820;2.666;2024-03-23T12:52:35;5.80;;;2.70;;
36315;SDS011;22343;50.820;2.666;2024-03-23T12:55:22;4.70;;;2.07;;
36315;SDS011;22343;50.820;2.666;2024-03-23T12:58:07;6.57;;;2.30;;
36315;SDS011;22343;50.820;2.666;2024-03-23T13:00:52;6.63;;;2.30;;
36315;SDS011;22343;50.820;2.666;2024-03-23T13:03:36;5.07;;;2.20;;
36315;SDS011;22343;50.820;2.666;2024-03-23T13:06:21;4.60;;;2.20;;
36315;SDS011;22343;50.820;2.666;2024-03-23T13:09:06;5.00;;;2.33;;
36315;SDS011;22343;50.820;2.666;2024-03-23T13:11:52;8.13;;;2.60;;
36315;SDS011;22343;50.820;2.666;2024-03-23T13:14:36;5.57;;;2.50;;
36315;SDS011;22343;50.820;2.666;2024-03-23T13:17:22;9.27;;;2.73;;
36315;SDS011;22343;50.820;2.666;2024-03-23T13:20:07;5.40;;;2.27;;
36315;SDS011;22343;50.820;2.666;2024-03-23T13:22:59;5.97;;;2.10;;
36315;SDS011;22343;50.820;2.666;2024-03-23T13:25:55;6.20;;;2.00;;
36315;SDS011;22343;50.820;2.666;2024-03-23T13:28:40;5.20;;;2.10;;
36315;SDS011;22343;50.820;2.666;2024-03-23T13:31:27;6.10;;;2.20;;
36315;SDS011;22343;50.820;2.666;2024-03-23T13:34:13;3.90;;;2.03;;
36315;SDS011;22343;50.820;2.666;2024-03-23T13:37:02;8.43;;;1.93;;
36315;SDS011;22343;50.820;2.666;2024-03-23T13:39:47;5.60;;;2.03;;
36315;SDS011;22343;50.820;2.666;2024-03-23T13:42:33;8.20;;;2.30;;
36315;SDS011;22343;50.820;2.666;2024-03-23T13:45:17;4.53;;;2.00;;
36315;SDS011;22343;50.820;2.666;2024-03-23T13:48:03;5.13;;;2.20;;
36315;SDS011;22343;50.820;2.666;2024-03-23T13:50:56;5.47;;;2.00;;
36315;SDS011;22343;50.820;2.666;2024-03-23T13:53:43;6.17;;;2.30;;
36315;SDS011;22343;50.820;2.666;2024-03-23T13:56:28;6.00;;;1.90;;
36315;SDS011;22343;50.820;2.666;2024-03-23T13:59:16;5.13;;;1.90;;
36315;SDS011;22343;50.820;2.666;2024-03-23T14:02:02;5.33;;;1.87;;
36315;SDS011;22343;50.820;2.666;2024-03-23T14:04:47;5.27;;;2.23;;
36315;SDS011;22343;50.820;2.666;2024-03-23T14:07:34;4.80;;;2.20;;
36315;SDS011;22343;50.820;2.666;2024-03-23T14:10:20;8.73;;;2.40;;
36315;SDS011;22343;50.820;2.666;2024-03-23T14:13:05;7.30;;;2.20;;
36315;SDS011;22343;50.820;2.666;2024-03-23T14:15:55;8.27;;;2.40;;
36315;SDS011;22343;50.820;2.666;2024-03-23T14:18:40;7.47;;;2.73;;
36315;SDS011;22343;50.820;2.666;2024-03-23T14:21:25;5.23;;;2.10;;
36315;SDS011;22343;50.820;2.666;2024-03-23T14:24:10;5.13;;;1.93;;
36315;SDS011;22343;50.820;2.666;2024-03-23T14:26:55;6.67;;;2.27;;
36315;SDS011;22343;50.820;2.666;2024-03-23T14:29:42;5.03;;;2.20;;
36315;SDS011;22343;50.820;2.666;2024-03-23T14:32:27;8.17;;;2.00;;
36315;SDS011;22343;50.820;2.666;2024-03-23T14:35:14;7.70;;;2.63;;
36315;SDS011;22343;50.820;2.666;2024-03-23T14:38:00;6.47;;;2.37;;
36315;SDS011;22343;50.820;2.666;2024-03-23T14:40:44;5.83;;;2.07;;
36315;SDS011;22343;50.820;2.666;2024-03-23T14:43:30;11.73;;;2.80;;
36315;SDS011;22343;50.820;2.666;2024-03-23T14:46:15;6.10;;;2.43;;
36315;SDS011;22343;50.820;2.666;2024-03-23T14:49:01;6.23;;;1.90;;
36315;SDS011;22343;50.820;2.666;2024-03-23T14:51:47;8.83;;;2.80;;
36315;SDS011;22343;50.820;2.666;2024-03-23T14:54:35;9.80;;;2.50;;
36315;SDS011;22343;50.820;2.666;2024-03-23T14:57:21;5.57;;;2.40;;
36315;SDS011;22343;50.820;2.666;2024-03-23T15:00:07;6.70;;;2.33;;
36315;SDS011;22343;50.820;2.666;2024-03-23T15:02:55;8.37;;;2.33;;
36315;SDS011;22343;50.820;2.666;2024-03-23T15:05:51;7.00;;;2.30;;
36315;SDS011;22343;50.820;2.666;2024-03-23T15:08:36;8.10;;;2.30;;
36315;SDS011;22343;50.820;2.666;2024-03-23T15:11:23;8.47;;;2.20;;
36315;SDS011;22343;50.820;2.666;2024-03-23T15:14:09;5.23;;;2.20;;
36315;SDS011;22343;50.820;2.666;2024-03-23T15:16:56;6.87;;;2.67;;
36315;SDS011;22343;50.820;2.666;2024-03-23T15:19:41;9.13;;;2.67;;
36315;SDS011;22343;50.820;2.666;2024-03-23T15:22:27;5.80;;;2.57;;
36315;SDS011;22343;50.820;2.666;2024-03-23T15:25:12;6.03;;;2.20;;
36315;SDS011;22343;50.820;2.666;2024-03-23T15:27:58;4.93;;;2.00;;
36315;SDS011;22343;50.820;2.666;2024-03-23T15:30:44;6.57;;;2.30;;
36315;SDS011;22343;50.820;2.666;2024-03-23T15:33:29;5.23;;;2.00;;
36315;SDS011;22343;50.820;2.666;2024-03-23T15:36:15;5.53;;;2.20;;
36315;SDS011;22343;50.820;2.666;2024-03-23T15:39:00;6.70;;;2.20;;
36315;SDS011;22343;50.820;2.666;2024-03-23T15:41:45;5.80;;;2.10;;
36315;SDS011;22343;50.820;2.666;2024-03-23T15:44:30;7.80;;;2.53;;
36315;SDS011;22343;50.820;2.666;2024-03-23T15:47:15;5.57;;;2.10;;
36315;SDS011;22343;50.820;2.666;2024-03-23T15:50:01;8.03;;;2.57;;
36315;SDS011;22343;50.820;2.666;2024-03-23T15:52:48;6.43;;;2.40;;
36315;SDS011;22343;50.820;2.666;2024-03-23T15:55:35;5.57;;;2.20;;
36315;SDS011;22343;50.820;2.666;2024-03-23T15:58:21;5.40;;;2.23;;
36315;SDS011;22343;50.820;2.666;2024-03-23T16:01:07;5.97;;;2.30;;
36315;SDS011;22343;50.820;2.666;2024-03-23T16:03:55;6.10;;;2.00;;
36315;SDS011;22343;50.820;2.666;2024-03-23T16:06:39;8.20;;;2.23;;
36315;SDS011;22343;50.820;2.666;2024-03-23T16:09:26;9.20;;;2.37;;
36315;SDS011;22343;50.820;2.666;2024-03-23T16:12:13;6.10;;;2.27;;
36315;SDS011;22343;50.820;2.666;2024-03-23T16:14:59;4.67;;;1.83;;
36315;SDS011;22343;50.820;2.666;2024-03-23T16:17:43;5.43;;;2.00;;
36315;SDS011;22343;50.820;2.666;2024-03-23T16:20:28;4.97;;;1.90;;
36315;SDS011;22343;50.820;2.666;2024-03-23T16:23:12;3.33;;;1.90;;
36315;SDS011;22343;50.820;2.666;2024-03-23T16:25:56;5.43;;;1.97;;
36315;SDS011;22343;50.820;2.666;2024-03-23T16:28:41;4.53;;;1.80;;
36315;SDS011;22343;50.820;2.666;2024-03-23T16:31:25;6.10;;;1.77;;
36315;SDS011;22343;50.820;2.666;2024-03-23T16:34:10;5.90;;;1.80;;
36315;SDS011;22343;50.820;2.666;2024-03-23T16:36:54;5.03;;;2.00;;
36315;SDS011;22343;50.820;2.666;2024-03-23T16:39:38;3.73;;;1.73;;
36315;SDS011;22343;50.820;2.666;2024-03-23T16:42:23;2.73;;;1.60;;
36315;SDS011;22343;50.820;2.666;2024-03-23T16:45:07;4.33;;;1.60;;
36315;SDS011;22343;50.820;2.666;2024-03-23T16:47:52;5.53;;;1.67;;
36315;SDS011;22343;50.820;2.666;2024-03-23T16:50:36;4.37;;;2.30;;
36315;SDS011;22343;50.820;2.666;2024-03-23T16:53:21;4.67;;;1.60;;
36315;SDS011;22343;50.820;2.666;2024-03-23T16:56:06;2.77;;;1.60;;
36315;SDS011;22343;50.820;2.666;2024-03-23T16:58:51;3.97;;;1.70;;
36315;SDS011;22343;50.820;2.666;2024-03-23T17:01:35;2.23;;;1.50;;
36315;SDS011;22343;50.820;2.666;2024-03-23T17:04:23;4.70;;;1.80;;
36315;SDS011;22343;50.820;2.666;2024-03-23T17:07:07;5.10;;;1.73;;
36315;SDS011;22343;50.820;2.666;2024-03-23T17:09:52;4.07;;;1.87;;
36315;SDS011;22343;50.820;2.666;2024-03-23T17:12:36;4.17;;;2.00;;
36315;SDS011;22343;50.820;2.666;2024-03-23T17:15:20;3.20;;;1.67;;
36315;SDS011;22343;50.820;2.666;2024-03-23T17:18:05;3.57;;;1.77;;
36315;SDS011;22343;50.820;2.666;2024-03-23T17:20:50;4.87;;;1.20;;
36315;SDS011;22343;50.820;2.666;2024-03-23T17:23:35;2.80;;;1.13;;
36315;SDS011;22343;50.820;2.666;2024-03-23T17:26:19;3.93;;;1.43;;
36315;SDS011;22343;50.820;2.666;2024-03-23T17:29:04;3.20;;;2.10;;
36315;SDS011;22343;50.820;2.666;2024-03-23T17:31:48;2.17;;;1.30;;
36315;SDS011;22343;50.820;2.666;2024-03-23T17:34:33;3.03;;;1.93;;
36315;SDS011;22343;50.820;2.666;2024-03-23T17:37:18;3.03;;;1.70;;
36315;SDS011;22343;50.820;2.666;2024-03-23T17:40:03;1.87;;;1.40;;